Time;durP1;ratioP1;P1;durP2;ratioP2;P2;SDS_P1;SDS_P2;PMS_P1;PMS_P2;Temp;Humidity;BMP_temperature;BMP_pressure;BME280_temperature;BME280_humidity;BME280_pressure;Samples;Min_cycle;Max_cycle;Signal;HPM_P1;HPM_P2
2022/01/19 00:00:27;;;;;;;61.70;24.42;;;;;;;2.66;100.00;101820.31;5015428;28;20538;-73
2022/01/19 00:02:52;;;;;;;51.05;22.35;;;;;;;2.58;100.00;101816.59;5015138;28;20037;-73
2022/01/19 00:05:17;;;;;;;57.38;22.95;;;;;;;2.49;100.00;101812.84;5015113;28;20368;-73
2022/01/19 00:07:42;;;;;;;53.97;23.45;;;;;;;2.43;100.00;101815.28;5015270;28;20034;-73
2022/01/19 00:10:11;;;;;;;53.72;23.20;;;;;;;2.39;100.00;101813.41;5013586;28;20033;-73
2022/01/19 00:12:37;;;;;;;50.75;22.70;;;;;;;2.37;100.00;101816.00;5015041;28;20041;-73
2022/01/19 00:15:05;;;;;;;48.63;21.08;;;;;;;2.32;100.00;101810.59;5014878;28;20062;-73
2022/01/19 00:17:30;;;;;;;50.55;22.77;;;;;;;2.29;100.00;101802.63;5014900;28;20026;-73
2022/01/19 00:19:56;;;;;;;45.35;21.05;;;;;;;2.25;100.00;101794.56;5014831;28;20014;-73
2022/01/19 00:22:21;;;;;;;47.58;21.65;;;;;;;2.16;100.00;101789.94;5013495;28;20033;-73
2022/01/19 00:24:47;;;;;;;50.92;21.55;;;;;;;2.09;100.00;101783.56;5014916;28;20025;-73
2022/01/19 00:27:13;;;;;;;48.50;20.67;;;;;;;1.98;100.00;101778.00;5013462;28;20030;-73
2022/01/19 00:29:38;;;;;;;50.22;20.90;;;;;;;1.96;100.00;101763.88;5014581;28;20022;-73
2022/01/19 00:32:04;;;;;;;50.78;20.85;;;;;;;1.85;100.00;101746.03;5014496;28;20104;-73
2022/01/19 00:34:29;;;;;;;47.08;20.52;;;;;;;1.82;100.00;101734.50;5014443;28;20021;-73
2022/01/19 00:36:55;;;;;;;48.25;21.08;;;;;;;1.80;100.00;101721.28;5014516;28;20021;-73
2022/01/19 00:39:23;;;;;;;46.72;20.35;;;;;;;1.71;100.00;101713.09;5014407;28;20391;-73
2022/01/19 00:41:48;;;;;;;55.75;21.42;;;;;;;1.70;100.00;101708.69;5014246;28;20029;-73
2022/01/19 00:44:13;;;;;;;52.80;21.75;;;;;;;1.69;100.00;101702.53;5014405;28;20479;-73
2022/01/19 00:46:38;;;;;;;53.35;21.67;;;;;;;1.65;100.00;101704.16;5014546;28;20029;-73
2022/01/19 00:49:04;;;;;;;53.05;24.90;;;;;;;1.61;100.00;101704.91;5013034;28;20028;-73
2022/01/19 00:51:30;;;;;;;59.85;24.85;;;;;;;1.60;100.00;101702.25;5012856;28;20057;-73
2022/01/19 00:53:55;;;;;;;47.88;20.08;;;;;;;1.59;100.00;101704.00;5014167;28;20028;-74
2022/01/19 00:56:20;;;;;;;55.78;20.90;;;;;;;1.54;100.00;101710.84;5014097;28;20095;-73
2022/01/19 00:58:45;;;;;;;51.67;20.60;;;;;;;1.54;100.00;101724.00;5014121;28;20024;-73
2022/01/19 01:01:11;;;;;;;50.45;20.25;;;;;;;1.55;100.00;101715.25;5013979;28;20025;-73
2022/01/19 01:03:36;;;;;;;48.65;19.80;;;;;;;1.55;100.00;101720.53;5012748;28;20032;-73
2022/01/19 01:06:02;;;;;;;47.45;19.73;;;;;;;1.49;100.00;101704.56;5012686;28;20033;-73
2022/01/19 01:08:27;;;;;;;48.38;19.05;;;;;;;1.45;100.00;101709.72;5013964;28;20558;-73
2022/01/19 01:10:52;;;;;;;47.05;17.90;;;;;;;1.42;100.00;101703.44;5013768;28;20037;-73
2022/01/19 01:15:24;;;;;;;44.40;19.98;;;;;;;1.37;100.00;101695.41;5012641;28;20026;-73
2022/01/19 01:16:17;;;;;;;47.67;18.95;;;;;;;1.30;100.00;101682.91;5013668;28;20113;-73
2022/01/19 01:18:42;;;;;;;44.70;17.90;;;;;;;1.26;100.00;101695.09;5012607;28;20029;-73
2022/01/19 01:21:07;;;;;;;46.85;17.63;;;;;;;1.22;100.00;101688.84;5013666;28;20022;-73
2022/01/19 01:23:35;;;;;;;50.63;19.67;;;;;;;1.25;100.00;101689.78;5013777;28;20044;-73
2022/01/19 01:26:01;;;;;;;44.35;19.80;;;;;;;1.17;100.00;101681.63;5013664;28;20071;-73
2022/01/19 01:28:26;;;;;;;46.83;19.95;;;;;;;1.14;100.00;101677.16;5013685;28;20018;-73
2022/01/19 01:30:52;;;;;;;48.15;20.08;;;;;;;1.11;100.00;101677.06;5013276;28;20076;-73
2022/01/19 01:33:18;;;;;;;44.38;19.25;;;;;;;1.07;100.00;101669.94;5013246;28;20096;-73
2022/01/19 01:35:43;;;;;;;43.88;18.40;;;;;;;1.07;100.00;101672.56;5013564;28;20032;-73
2022/01/19 01:38:09;;;;;;;43.60;17.77;;;;;;;1.06;100.00;101662.88;5013517;28;20430;-73
2022/01/19 01:40:35;;;;;;;45.20;18.73;;;;;;;1.07;100.00;101664.66;5013476;28;20060;-73
2022/01/19 01:43:04;;;;;;;42.53;17.17;;;;;;;1.04;100.00;101654.03;5012105;28;20030;-73
2022/01/19 01:45:33;;;;;;;46.63;17.48;;;;;;;1.02;100.00;101639.94;5013459;28;20102;-73
2022/01/19 01:48:06;;;;;;;47.65;18.27;;;;;;;0.95;100.00;101628.34;5012206;28;20030;-73
2022/01/19 01:53:27;;;;;;;48.55;19.45;;;;;;;0.96;100.00;101630.13;5013394;28;20048;-73
2022/01/19 01:56:16;;;;;;;46.13;18.50;;;;;;;0.93;100.00;101625.66;5012110;28;20049;-73
2022/01/19 01:58:44;;;;;;;48.70;19.80;;;;;;;1.00;100.00;101625.03;5012075;28;20383;-73
2022/01/19 02:01:10;;;;;;;68.32;24.25;;;;;;;1.05;100.00;101619.00;5013360;28;20101;-73
2022/01/19 02:03:39;;;;;;;56.00;21.67;;;;;;;1.04;100.00;101628.63;5013289;28;20060;-74
2022/01/19 02:08:49;;;;;;;54.28;21.27;;;;;;;0.98;100.00;101618.81;5013579;28;20112;-73
2022/01/19 02:16:35;;;;;;;73.22;26.48;;;;;;;1.05;100.00;101571.66;5013680;28;20053;-73
2022/01/19 02:22:04;;;;;;;66.82;23.05;;;;;;;1.04;100.00;101561.97;5013354;28;20036;-73
2022/01/19 02:24:40;;;;;;;54.60;21.02;;;;;;;1.02;100.00;101553.13;5013332;28;20021;-73
2022/01/19 02:27:14;;;;;;;53.05;19.30;;;;;;;0.99;100.00;101539.06;5011798;28;20026;-73
2022/01/19 02:30:20;;;;;;;57.15;20.73;;;;;;;0.97;100.00;101527.59;5011759;28;20088;-74
2022/01/19 02:40:48;;;;;;;55.50;19.90;;;;;;;0.86;100.00;101494.81;5013074;28;20282;-74
2022/01/19 02:43:21;;;;;;;50.80;20.08;;;;;;;0.88;100.00;101491.38;5014436;28;20449;-73
2022/01/19 02:51:14;;;;;;;48.75;19.00;;;;;;;0.90;100.00;101475.66;5016634;28;20068;-74
2022/01/19 02:53:39;;;;;;;50.15;17.88;;;;;;;0.86;100.00;101473.78;5016452;28;20021;-74
2022/01/19 02:56:18;;;;;;;54.17;19.58;;;;;;;0.84;100.00;101479.00;5016410;28;20394;-74
2022/01/19 02:58:52;;;;;;;50.35;19.58;;;;;;;0.83;100.00;101471.03;5016655;28;20026;-74
2022/01/19 03:09:23;;;;;;;50.80;18.63;;;;;;;0.73;100.00;101439.22;5016456;28;20384;-73
2022/01/19 03:11:49;;;;;;;44.42;19.23;;;;;;;0.72;100.00;101432.19;5014698;28;20505;-76
2022/01/19 03:14:17;;;;;;;52.67;19.23;;;;;;;0.70;100.00;101433.88;5016336;28;20034;-75
2022/01/19 03:16:42;;;;;;;41.17;17.40;;;;;;;0.69;100.00;101432.13;5014750;28;20479;-75
2022/01/19 03:19:09;;;;;;;46.30;16.40;;;;;;;0.55;100.00;101445.72;5014754;28;20073;-75
2022/01/19 03:21:35;;;;;;;43.22;17.42;;;;;;;0.43;100.00;101450.63;5015928;28;20072;-74
2022/01/19 03:24:01;;;;;;;46.25;17.38;;;;;;;0.41;100.00;101452.31;5015867;28;20025;-74
2022/01/19 03:26:27;;;;;;;37.45;15.23;;;;;;;0.44;100.00;101452.38;5015832;28;20026;-74
2022/01/19 03:28:53;;;;;;;36.30;16.00;;;;;;;0.28;100.00;101451.94;5015806;28;20441;-75
2022/01/19 03:31:18;;;;;;;45.63;19.83;;;;;;;-0.01;100.00;101442.28;5015622;28;20545;-74
2022/01/19 03:33:44;;;;;;;43.53;18.02;;;;;;;0.09;100.00;101434.69;5015778;28;20112;-74
2022/01/19 03:36:10;;;;;;;41.58;18.27;;;;;;;0.04;100.00;101420.50;5016015;28;20048;-75
2022/01/19 03:38:36;;;;;;;43.35;18.02;;;;;;;0.01;100.00;101409.91;5015621;28;20422;-74
2022/01/19 03:41:01;;;;;;;44.15;18.98;;;;;;;-0.10;100.00;101417.44;5015516;28;20029;-74
2022/01/19 03:43:27;;;;;;;40.88;17.67;;;;;;;-0.12;100.00;101405.16;5015432;28;20375;-74
2022/01/19 03:45:54;;;;;;;42.50;17.75;;;;;;;-0.10;100.00;101402.56;5014257;28;20474;-74
2022/01/19 03:51:02;;;;;;;44.67;18.05;;;;;;;-0.08;100.00;101400.91;5015553;28;20430;-75
2022/01/19 03:53:27;;;;;;;43.28;18.63;;;;;;;0.14;100.00;101405.91;5014101;28;20088;-74
2022/01/19 03:55:52;;;;;;;41.45;18.58;;;;;;;0.13;100.00;101401.53;5014765;28;20212;-74
2022/01/19 03:58:18;;;;;;;46.25;18.65;;;;;;;0.31;100.00;101388.06;5014026;28;20037;-76
2022/01/19 04:00:45;;;;;;;46.28;18.55;;;;;;;0.16;100.00;101389.38;5014156;28;20044;-74
2022/01/19 04:03:16;;;;;;;43.60;18.60;;;;;;;0.06;100.00;101385.56;5013900;28;20483;-74
2022/01/19 04:05:54;;;;;;;47.55;20.27;;;;;;;0.07;100.00;101378.59;5015420;28;20100;-74
2022/01/19 04:08:21;;;;;;;46.80;20.23;;;;;;;-0.11;100.00;101385.03;5015090;28;20030;-75
2022/01/19 04:10:46;;;;;;;55.72;21.65;;;;;;;-0.24;100.00;101370.63;5014936;28;20037;-74
2022/01/19 04:13:24;;;;;;;47.00;18.65;;;;;;;-0.33;100.00;101363.34;5014954;28;20026;-74
2022/01/19 04:15:51;;;;;;;50.95;19.67;;;;;;;-0.47;100.00;101362.91;5015226;28;20465;-73
2022/01/19 04:18:16;;;;;;;59.88;25.00;;;;;;;-0.64;100.00;101346.56;5013653;28;20025;-73
2022/01/19 04:20:43;;;;;;;53.03;24.98;;;;;;;-0.71;100.00;101353.34;5015051;28;20402;-73
2022/01/19 04:23:09;;;;;;;49.80;19.38;;;;;;;-0.81;100.00;101350.44;5015085;28;20022;-73
2022/01/19 04:25:35;;;;;;;54.83;21.63;;;;;;;-0.87;100.00;101334.47;5014768;28;20022;-73
2022/01/19 04:28:07;;;;;;;56.53;21.15;;;;;;;-0.87;100.00;101336.19;5015118;28;20049;-73
2022/01/19 04:30:32;;;;;;;58.05;22.60;;;;;;;-0.83;100.00;101335.47;5014624;28;20077;-73
2022/01/19 04:35:26;;;;;;;63.45;22.45;;;;;;;-0.85;100.00;101314.41;5014843;28;20022;-73
2022/01/19 05:04:48;;;;;;;62.20;24.92;;;;;;;-0.55;100.00;101248.91;5014275;28;20069;-73
2022/01/19 05:07:26;;;;;;;67.75;25.02;;;;;;;-0.49;100.00;101246.50;5013226;28;20029;-73
2022/01/19 05:10:03;;;;;;;72.65;26.65;;;;;;;-0.50;100.00;101236.81;5012577;28;20054;-73
2022/01/19 05:15:12;;;;;;;56.00;21.58;;;;;;;-0.54;100.00;101237.59;5014389;28;20037;-73
2022/01/19 05:17:38;;;;;;;60.47;22.85;;;;;;;-0.60;100.00;101233.94;5012578;28;20022;-73
2022/01/19 05:20:08;;;;;;;55.95;23.48;;;;;;;-0.64;100.00;101223.25;5012428;28;20029;-74
2022/01/19 05:22:33;;;;;;;50.35;21.40;;;;;;;-0.64;100.00;101218.91;5013750;28;20025;-73
2022/01/19 05:24:59;;;;;;;48.67;18.58;;;;;;;-0.62;100.00;101222.47;5014279;28;20080;-73
2022/01/19 05:27:24;;;;;;;49.92;19.98;;;;;;;-0.63;100.00;101227.69;5014219;28;20021;-74
2022/01/19 05:29:50;;;;;;;46.85;18.70;;;;;;;-0.65;100.00;101230.28;5012316;28;20482;-74
2022/01/19 05:32:15;;;;;;;42.22;16.75;;;;;;;-0.65;100.00;101224.13;5012353;28;20060;-74
2022/01/19 05:34:42;;;;;;;43.95;16.70;;;;;;;-0.65;100.00;101218.88;5012317;28;20088;-75
2022/01/19 05:37:07;;;;;;;38.03;16.15;;;;;;;-0.68;100.00;101214.44;5013564;28;20026;-73
2022/01/19 05:39:32;;;;;;;38.78;16.50;;;;;;;-0.67;100.00;101205.72;5013526;28;20078;-74
2022/01/19 05:44:23;;;;;;;32.50;15.27;;;;;;;-0.65;100.00;101183.06;5034278;22;20046;-80
2022/01/19 05:46:48;;;;;;;42.42;16.40;;;;;;;-0.64;100.00;101183.91;5014234;28;20038;-80
2022/01/19 05:49:13;;;;;;;42.22;16.90;;;;;;;-0.63;100.00;101185.72;4997392;28;20018;-80
2022/01/19 05:51:39;;;;;;;36.80;15.93;;;;;;;-0.68;100.00;101177.69;5014999;28;20013;-80
2022/01/19 05:54:04;;;;;;;39.53;16.55;;;;;;;-0.69;100.00;101175.91;5014292;28;20026;-80
2022/01/19 05:56:29;;;;;;;33.78;15.15;;;;;;;-0.76;100.00;101181.81;5016266;28;20052;-81
2022/01/19 05:58:55;;;;;;;35.83;15.73;;;;;;;-0.76;100.00;101181.81;5016674;28;20453;-82
2022/01/19 06:01:20;;;;;;;41.70;15.73;;;;;;;-0.81;100.00;101177.31;5017438;28;20030;-80
2022/01/19 06:03:46;;;;;;;39.83;16.23;;;;;;;-0.84;100.00;101171.06;5014928;28;20084;-81
2022/01/19 06:06:11;;;;;;;33.22;15.18;;;;;;;-0.90;100.00;101179.63;5015490;28;20565;-82
2022/01/19 06:08:42;;;;;;;38.70;16.63;;;;;;;-0.88;100.00;101175.34;5018287;28;20033;-83
2022/01/19 06:11:07;;;;;;;37.67;15.85;;;;;;;-0.94;100.00;101164.66;5015020;28;20022;-83
2022/01/19 06:13:33;;;;;;;38.72;15.73;;;;;;;-0.94;100.00;101155.06;5015069;28;20125;-82
2022/01/19 06:15:58;;;;;;;37.53;14.82;;;;;;;-0.94;100.00;101151.53;5015114;28;20030;-81
2022/01/19 06:18:23;;;;;;;31.63;14.65;;;;;;;-0.89;100.00;101144.72;5015362;28;20030;-82
2022/01/19 06:20:50;;;;;;;31.58;14.43;;;;;;;-0.93;100.00;101140.22;5017155;28;20108;-82
2022/01/19 06:23:15;;;;;;;33.83;14.60;;;;;;;-0.96;100.00;101145.38;5017359;28;20029;-81
2022/01/19 06:25:41;;;;;;;32.97;15.07;;;;;;;-0.92;100.00;101144.59;5018744;28;20026;-81
2022/01/19 06:28:06;;;;;;;34.13;15.73;;;;;;;-0.87;100.00;101135.16;5017236;28;20026;-81
2022/01/19 06:30:31;;;;;;;38.00;17.05;;;;;;;-0.87;100.00;101139.50;5018390;28;20018;-82
2022/01/19 06:32:57;;;;;;;32.92;17.05;;;;;;;-0.85;100.00;101148.34;5016847;28;20032;-82
2022/01/19 06:35:22;;;;;;;33.08;16.30;;;;;;;-0.94;100.00;101155.06;5016923;28;20029;-81
2022/01/19 06:37:48;;;;;;;38.78;18.73;;;;;;;-0.92;100.00;101152.47;5016901;28;20076;-81
2022/01/19 06:40:15;;;;;;;36.88;18.00;;;;;;;-0.91;100.00;101159.50;5016297;28;20018;-81
2022/01/19 06:42:41;;;;;;;36.97;16.85;;;;;;;-0.94;100.00;101149.81;5016333;28;20026;-81
2022/01/19 06:45:08;;;;;;;36.28;17.55;;;;;;;-0.93;100.00;101140.22;5016097;28;20128;-80
2022/01/19 06:47:34;;;;;;;39.97;18.40;;;;;;;-0.97;100.00;101128.75;5015387;28;20033;-81
2022/01/19 06:49:59;;;;;;;39.63;19.55;;;;;;;-1.03;100.00;101124.19;5016259;28;20021;-80
2022/01/19 06:52:25;;;;;;;38.15;18.35;;;;;;;-0.92;100.00;101126.25;5016426;28;20030;-82
2022/01/19 06:54:50;;;;;;;36.55;17.60;;;;;;;-0.92;100.00;101131.50;5017636;28;20113;-81
2022/01/19 06:57:16;;;;;;;43.97;20.25;;;;;;;-0.91;100.00;101115.84;5016176;28;20033;-81
2022/01/19 06:59:41;;;;;;;41.70;20.02;;;;;;;-0.83;100.00;101120.41;5016218;28;20105;-81
2022/01/19 07:02:07;;;;;;;41.40;20.83;;;;;;;-0.77;100.00;101111.84;5017487;28;20025;-81
2022/01/19 07:04:32;;;;;;;36.72;18.75;;;;;;;-0.69;100.00;101102.47;5015877;28;20026;-80
2022/01/19 07:06:58;;;;;;;37.50;18.42;;;;;;;-0.66;100.00;101099.94;5017377;28;20422;-80
2022/01/19 07:09:23;;;;;;;42.47;20.48;;;;;;;-0.59;100.00;101088.78;5017014;28;20034;-80
2022/01/19 07:11:49;;;;;;;36.65;20.27;;;;;;;-0.58;100.00;101087.94;5016815;28;20029;-81
2022/01/19 07:14:17;;;;;;;37.25;19.70;;;;;;;-0.49;100.00;101083.81;5012135;28;20061;-78
2022/01/19 07:16:43;;;;;;;38.17;19.13;;;;;;;-0.48;100.00;101075.06;5012097;28;20033;-81
2022/01/19 07:19:09;;;;;;;37.75;19.20;;;;;;;-0.44;100.00;101076.06;5015902;28;20041;-79
2022/01/19 07:21:35;;;;;;;37.88;19.50;;;;;;;-0.41;100.00;101070.91;5014740;28;20487;-81
2022/01/19 07:24:00;;;;;;;33.28;19.52;;;;;;;-0.41;100.00;101071.78;5015958;28;20030;-81
2022/01/19 07:26:25;;;;;;;35.80;19.20;;;;;;;-0.38;100.00;101071.88;5015045;28;20053;-82
2022/01/19 07:28:51;;;;;;;34.47;18.63;;;;;;;-0.33;100.00;101079.00;5015186;28;20391;-81
2022/01/19 07:31:16;;;;;;;33.28;17.98;;;;;;;-0.30;100.00;101079.06;5016672;28;20076;-83
2022/01/19 07:33:42;;;;;;;33.53;19.27;;;;;;;-0.27;100.00;101094.91;5015586;28;20033;-81
2022/01/19 07:36:07;;;;;;;37.60;18.35;;;;;;;-0.25;100.00;101096.72;5017085;28;20026;-81
2022/01/19 07:38:32;;;;;;;34.83;18.83;;;;;;;-0.14;100.00;101091.78;5015174;28;20498;-80
2022/01/19 07:40:58;;;;;;;31.38;18.20;;;;;;;-0.12;100.00;101086.56;5015182;28;20364;-81
2022/01/19 07:43:23;;;;;;;33.50;18.75;;;;;;;-0.05;100.00;101090.25;5015013;28;20077;-81
2022/01/19 07:45:49;;;;;;;31.95;19.15;;;;;;;-0.08;100.00;101084.91;5015236;28;20025;-82
2022/01/19 07:48:14;;;;;;;30.60;17.48;;;;;;;-0.04;100.00;101084.13;5016055;28;20550;-81
2022/01/19 07:50:40;;;;;;;31.55;17.33;;;;;;;-0.01;100.00;101092.09;5015838;28;20022;-81
2022/01/19 07:53:06;;;;;;;34.08;18.88;;;;;;;0.02;100.00;101096.53;5016068;28;20030;-80
2022/01/19 07:55:31;;;;;;;34.33;18.30;;;;;;;0.11;100.00;101104.66;5014245;28;20022;-80
2022/01/19 07:57:57;;;;;;;35.33;18.30;;;;;;;0.10;100.00;101106.38;5014221;28;20029;-80
2022/01/19 08:00:22;;;;;;;34.40;18.67;;;;;;;0.10;100.00;101103.75;5014039;28;20013;-80
2022/01/19 08:02:49;;;;;;;32.00;17.92;;;;;;;0.13;100.00;101109.97;5013793;28;20088;-81
2022/01/19 08:05:18;;;;;;;31.73;18.52;;;;;;;0.12;100.00;101109.06;5016171;28;20028;-81
2022/01/19 08:07:43;;;;;;;30.83;17.85;;;;;;;0.15;100.00;101092.50;5015405;28;20494;-80
2022/01/19 08:10:10;;;;;;;33.40;18.48;;;;;;;0.16;100.00;101092.53;5015382;28;20058;-81
2022/01/19 08:12:37;;;;;;;28.73;17.67;;;;;;;0.20;100.00;101083.00;5015071;28;20029;-81
2022/01/19 08:15:03;;;;;;;32.25;17.48;;;;;;;0.22;100.00;101078.69;5015045;28;20105;-82
2022/01/19 08:17:29;;;;;;;29.38;17.10;;;;;;;0.21;100.00;101071.63;5015431;28;20025;-81
2022/01/19 08:19:56;;;;;;;30.50;18.67;;;;;;;0.30;100.00;101076.25;5016401;28;20395;-81
2022/01/19 08:22:21;;;;;;;31.48;18.63;;;;;;;0.26;100.00;101064.75;5016878;28;20032;-82
2022/01/19 08:24:47;;;;;;;32.58;18.73;;;;;;;0.31;100.00;101060.50;5015137;28;20033;-81
2022/01/19 08:27:12;;;;;;;30.55;18.73;;;;;;;0.28;100.00;101068.34;5014883;28;20021;-80
2022/01/19 08:29:38;;;;;;;29.88;18.52;;;;;;;0.32;100.00;101057.03;5015801;28;20113;-80
2022/01/19 08:32:07;;;;;;;32.67;19.98;;;;;;;0.33;100.00;101061.47;5015306;28;20026;-80
2022/01/19 08:34:33;;;;;;;33.22;20.25;;;;;;;0.40;100.00;101061.59;5007990;28;20026;-81
2022/01/19 08:36:59;;;;;;;32.80;19.40;;;;;;;0.40;100.00;101051.97;4996110;28;20033;-82
2022/01/19 08:39:25;;;;;;;32.78;19.70;;;;;;;0.49;100.00;101053.06;4995101;28;20447;-81
2022/01/19 08:41:51;;;;;;;34.03;19.75;;;;;;;0.48;100.00;101053.91;4993495;28;20079;-82
2022/01/19 08:44:17;;;;;;;38.53;22.10;;;;;;;0.52;100.00;101048.75;5015084;28;20034;-82
2022/01/19 08:46:43;;;;;;;36.70;22.35;;;;;;;0.54;100.00;101047.03;5014756;28;20022;-81
2022/01/19 08:49:09;;;;;;;42.33;22.50;;;;;;;0.66;100.00;101043.84;5015690;28;20030;-81
2022/01/19 08:51:38;;;;;;;41.25;23.25;;;;;;;0.64;100.00;101035.03;5014208;28;20026;-81
2022/01/19 08:54:04;;;;;;;41.10;24.15;;;;;;;0.64;100.00;101032.41;5015815;28;20034;-80
2022/01/19 08:56:29;;;;;;;45.58;24.88;;;;;;;0.70;100.00;101031.63;5015311;28;20021;-80
2022/01/19 08:58:55;;;;;;;43.58;24.00;;;;;;;0.70;100.00;101034.25;5015732;28;20030;-81
2022/01/19 09:01:20;;;;;;;44.58;25.98;;;;;;;0.80;100.00;101032.72;5015044;28;20022;-81
2022/01/19 09:03:45;;;;;;;43.15;23.52;;;;;;;0.80;100.00;101029.22;5015039;28;20095;-82
2022/01/19 09:06:11;;;;;;;47.00;26.38;;;;;;;0.78;100.00;101024.81;5015083;28;20021;-80
2022/01/19 09:08:36;;;;;;;43.35;24.83;;;;;;;0.80;100.00;101014.31;5014721;28;20424;-80
2022/01/19 09:11:02;;;;;;;41.70;24.40;;;;;;;0.89;100.00;101003.13;5014622;28;20032;-80
2022/01/19 09:13:28;;;;;;;40.60;23.20;;;;;;;0.96;100.00;100993.63;5014827;28;20483;-81
2022/01/19 09:15:54;;;;;;;38.65;23.88;;;;;;;0.93;100.00;100980.44;5013195;28;20025;-81
2022/01/19 09:18:20;;;;;;;40.47;23.85;;;;;;;0.96;100.00;100988.34;5014493;28;20371;-81
2022/01/19 09:20:45;;;;;;;41.63;24.33;;;;;;;0.97;100.00;100972.63;5011916;28;20093;-82
2022/01/19 09:23:11;;;;;;;36.90;21.90;;;;;;;0.97;100.00;100975.25;5014188;28;20502;-81
2022/01/19 09:25:36;;;;;;;37.90;23.02;;;;;;;0.97;100.00;100971.72;5015508;28;20083;-81
2022/01/19 09:28:01;;;;;;;35.88;22.50;;;;;;;1.01;100.00;100960.41;5015230;28;20022;-81
2022/01/19 09:30:27;;;;;;;39.20;22.85;;;;;;;1.08;100.00;100962.31;5014846;28;20029;-81
2022/01/19 09:33:06;;;;;;;35.80;21.80;;;;;;;1.11;100.00;100961.47;5014624;28;20479;-81
2022/01/19 09:35:51;;;;;;;33.55;20.95;;;;;;;1.14;100.00;100963.28;5031132;28;20530;-80
2022/01/19 09:38:18;;;;;;;34.03;21.45;;;;;;;1.17;100.00;100966.88;5033247;28;20709;-80
2022/01/19 09:40:44;;;;;;;34.22;21.25;;;;;;;1.17;100.00;100972.13;5032877;28;20018;-81
2022/01/19 09:43:09;;;;;;;34.75;21.33;;;;;;;1.17;100.00;100966.88;5025122;28;20049;-80
2022/01/19 09:45:35;;;;;;;32.20;20.30;;;;;;;1.21;100.00;100957.31;5019847;28;20071;-81
2022/01/19 09:48:00;;;;;;;29.58;19.48;;;;;;;1.25;100.00;100958.25;5034065;28;20087;-80
2022/01/19 09:50:26;;;;;;;31.23;20.23;;;;;;;1.22;100.00;100949.44;5029185;28;20379;-80
2022/01/19 09:52:52;;;;;;;32.20;19.85;;;;;;;1.29;100.00;100939.91;5012110;28;20033;-80
2022/01/19 09:55:17;;;;;;;35.22;21.55;;;;;;;1.26;100.00;100928.44;5028487;28;20044;-80
2022/01/19 09:57:43;;;;;;;33.30;20.15;;;;;;;1.26;100.00;100929.34;5033597;28;20030;-80
2022/01/19 10:00:09;;;;;;;34.10;20.73;;;;;;;1.30;100.00;100925.00;5034391;28;20025;-80
2022/01/19 10:02:34;;;;;;;33.97;20.38;;;;;;;1.31;100.00;100932.94;5032987;28;20520;-81
2022/01/19 10:05:07;;;;;;;30.92;18.95;;;;;;;1.38;100.00;100928.69;5032696;28;20025;-81
2022/01/19 10:07:32;;;;;;;29.98;20.65;;;;;;;1.45;100.00;100930.56;5033590;28;20025;-80
2022/01/19 10:10:04;;;;;;;29.92;19.83;;;;;;;1.41;100.00;100926.09;5032882;28;20120;-81
2022/01/19 10:18:13;;;;;;;30.67;19.65;;;;;;;1.46;100.00;100905.13;5014792;28;20041;-80
2022/01/19 10:20:39;;;;;;;30.27;19.33;;;;;;;1.49;100.00;100909.56;5014273;28;20383;-80
2022/01/19 10:23:05;;;;;;;31.73;21.13;;;;;;;1.45;100.00;100898.09;5012450;28;20022;-80
2022/01/19 10:25:48;;;;;;;31.27;20.50;;;;;;;1.49;100.00;100893.78;5013859;28;20033;-81
2022/01/19 10:28:13;;;;;;;28.20;19.85;;;;;;;1.47;100.00;100883.19;5015191;28;20554;-82
2022/01/19 10:30:39;;;;;;;31.00;20.65;;;;;;;1.45;100.00;100877.91;5013516;28;20097;-82
2022/01/19 10:33:04;;;;;;;30.95;20.65;;;;;;;1.45;100.00;100872.66;5015930;28;20030;-82
2022/01/19 10:35:37;;;;;;;28.10;20.58;;;;;;;1.53;100.00;100875.41;5031366;28;20100;-81
2022/01/19 10:38:18;;;;;;;26.00;18.08;;;;;;;1.50;100.00;100872.72;5034236;28;20072;-80
2022/01/19 10:40:55;;;;;;;28.52;19.35;;;;;;;1.55;100.00;100873.69;5034544;28;20033;-81
2022/01/19 10:43:38;;;;;;;24.85;17.95;;;;;;;1.61;100.00;100864.13;5010839;28;20026;-81
2022/01/19 10:46:15;;;;;;;28.05;18.88;;;;;;;1.57;100.00;100865.84;5012670;28;20022;-81
2022/01/19 10:48:41;;;;;;;27.48;18.85;;;;;;;1.61;100.00;100867.66;5014116;28;20479;-80
2022/01/19 10:51:10;;;;;;;25.48;18.25;;;;;;;1.63;100.00;100865.91;5012692;28;20026;-81
2022/01/19 10:53:36;;;;;;;30.73;21.92;;;;;;;1.65;100.00;100856.28;5013800;28;20104;-80
2022/01/19 10:56:05;;;;;;;26.95;20.35;;;;;;;1.65;100.00;100853.66;5013813;28;20181;-80
2022/01/19 10:58:32;;;;;;;30.77;21.30;;;;;;;1.61;100.00;100849.22;5014002;28;20058;-80
2022/01/19 11:00:57;;;;;;;30.77;20.92;;;;;;;1.68;100.00;100847.56;5012126;28;20029;-80
2022/01/19 11:03:28;;;;;;;32.67;21.75;;;;;;;1.66;100.00;100830.84;5010840;28;20025;-81
2022/01/19 11:06:01;;;;;;;32.40;21.48;;;;;;;1.68;100.00;100821.22;4996727;28;20428;-80
2022/01/19 11:08:28;;;;;;;36.45;22.48;;;;;;;1.71;100.00;100823.91;4995768;28;20027;-80
2022/01/19 11:10:56;;;;;;;35.60;21.33;;;;;;;1.75;100.00;100828.34;4995783;28;20050;-80
2022/01/19 11:13:32;;;;;;;37.60;23.83;;;;;;;1.73;100.00;100823.94;4996051;28;20026;-82
2022/01/19 11:16:03;;;;;;;34.40;21.88;;;;;;;1.74;100.00;100809.91;4999264;28;20026;-82
2022/01/19 11:18:30;;;;;;;33.05;21.13;;;;;;;1.74;100.00;100802.00;4999603;28;20169;-82
2022/01/19 11:21:01;;;;;;;38.00;22.63;;;;;;;1.75;100.00;100790.63;4998832;28;20432;-82
2022/01/19 11:23:47;;;;;;;33.58;21.55;;;;;;;1.75;100.00;100780.97;4999621;28;20395;-82
2022/01/19 11:26:16;;;;;;;36.55;22.13;;;;;;;1.81;100.00;100774.91;4999229;28;20022;-81
2022/01/19 11:28:44;;;;;;;39.90;23.60;;;;;;;1.83;100.00;100765.28;4998967;28;20073;-81
2022/01/19 11:31:34;;;;;;;35.00;22.15;;;;;;;1.78;100.00;100759.06;4998698;28;20437;-82
2022/01/19 11:34:00;;;;;;;40.13;22.42;;;;;;;1.76;100.00;100755.53;4997476;28;20035;-81
2022/01/19 11:36:34;;;;;;;41.30;23.33;;;;;;;1.73;100.00;100755.47;4999156;28;20034;-82
2022/01/19 11:39:02;;;;;;;42.85;24.17;;;;;;;1.73;100.00;100750.19;4999868;28;20080;-80
2022/01/19 11:41:40;;;;;;;42.33;23.75;;;;;;;1.73;100.00;100750.19;4997916;28;20022;-81
2022/01/19 11:44:09;;;;;;;35.70;21.98;;;;;;;1.74;100.00;100734.44;4998568;23;20058;-77
2022/01/19 11:46:39;;;;;;;39.33;22.30;;;;;;;1.72;100.00;100736.19;4995928;28;20034;-77
2022/01/19 11:49:07;;;;;;;37.80;23.35;;;;;;;1.78;100.00;100730.09;4995967;28;20049;-77
2022/01/19 11:51:41;;;;;;;41.90;24.60;;;;;;;1.78;100.00;100727.44;4988860;28;20074;-76
2022/01/19 11:54:27;;;;;;;47.30;25.92;;;;;;;1.75;100.00;100717.75;4994508;28;20033;-77
2022/01/19 11:56:59;;;;;;;42.00;24.88;;;;;;;1.65;100.00;100719.38;4994592;28;20073;-76
2022/01/19 11:59:44;;;;;;;45.53;25.13;;;;;;;1.61;100.00;100714.97;4995743;28;20430;-77
2022/01/19 12:02:26;;;;;;;47.22;25.58;;;;;;;1.56;100.00;100701.75;4995365;28;20031;-76
2022/01/19 12:04:59;;;;;;;49.15;24.50;;;;;;;1.57;100.00;100694.72;4995868;28;20177;-77
2022/01/19 12:07:35;;;;;;;51.38;26.02;;;;;;;1.52;100.00;100693.78;4995671;28;20022;-77
2022/01/19 12:10:03;;;;;;;47.35;25.10;;;;;;;1.59;100.00;100676.31;4995381;28;20377;-77
2022/01/19 12:12:32;;;;;;;50.42;24.75;;;;;;;1.60;100.00;100678.09;4995479;28;20403;-77
2022/01/19 12:14:58;;;;;;;56.50;27.70;;;;;;;1.53;100.00;100679.75;4995329;28;20022;-76
2022/01/19 12:17:56;;;;;;;54.95;27.85;;;;;;;1.55;100.00;100672.75;4995070;28;20037;-77
2022/01/19 12:20:51;;;;;;;54.92;27.63;;;;;;;1.55;100.00;100665.72;4994076;28;20033;-77
2022/01/19 12:23:43;;;;;;;58.35;28.70;;;;;;;1.54;100.00;100666.63;4995249;28;20030;-77
2022/01/19 12:26:10;;;;;;;55.40;28.27;;;;;;;1.60;100.00;100668.41;4993620;28;20492;-76
2022/01/19 12:28:47;;;;;;;51.75;27.67;;;;;;;1.50;100.00;100659.53;4993909;28;20034;-77